Raven Creek, Pennsylvania
Current Conditions -  °F | °C
As of 10:55 AM on Thursday 23 Oct 2014 (Local Time) from KHZL Reporting Station
Moderate Rain Moderate Rain  
Wind Chill: 37°   Ceiling: 300
Heat Index: 43°   Visibility: 5mi
Dew Point: 43°   Wind: 10mph
Humidity: 100%   Direction: 310°NW
Pressure: 29.88"   Gusts: NA
Location:  41.2534°N, 76.3299°W
Report Text: KHZL 231455Z AUTO 31009KT 5SM RA OVC003 06/06 A2988 RMK AO2 P0001
Loading
Personal Weather Stations






























Interactive Weather Map
Tropical Storm Tracking
New forecast layout! Learn more

10-Day Weather Forecast

Advertisements
Track Severe Weather on mobile